Time;durP1;ratioP1;P1;durP2;ratioP2;P2;SDS_P1;SDS_P2;PMS_P1;PMS_P2;Temp;Humidity;BMP_temperature;BMP_pressure;BME280_temperature;BME280_humidity;BME280_pressure;Samples;Min_cycle;Max_cycle;Signal;HPM_P1;HPM_P2
2022/04/30 00:01:35;;;;;;;1.33;0.77;;;20.60;38.30;;;24.45;25.40;102416.28;6216056;23;20009;-16
2022/04/30 00:04:01;;;;;;;0.60;0.60;;;20.60;38.40;;;24.47;25.17;102420.59;6214135;23;20017;-16
2022/04/30 00:06:27;;;;;;;0.50;0.50;;;20.60;38.40;;;24.48;25.12;102422.31;6215993;23;20074;-16
2022/04/30 00:08:53;;;;;;;1.05;0.80;;;20.60;38.40;;;24.42;25.12;102410.16;6215660;23;20017;-16
2022/04/30 00:11:18;;;;;;;0.90;0.75;;;20.60;38.40;;;24.49;25.35;102415.16;6215845;23;20016;-16
2022/04/30 00:13:46;;;;;;;0.70;0.70;;;20.60;38.40;;;24.47;25.15;102422.41;6215710;23;20017;-16
2022/04/30 00:16:12;;;;;;;0.80;0.80;;;20.60;38.40;;;24.42;25.30;102414.63;6215488;23;20548;-17
2022/04/30 00:18:38;;;;;;;0.60;0.60;;;20.60;38.30;;;24.42;25.09;102410.16;6215411;23;20016;-16
2022/04/30 00:21:05;;;;;;;0.65;0.65;;;20.60;38.90;;;24.45;25.37;102414.47;6215665;23;20024;-17
2022/04/30 00:23:30;;;;;;;0.80;0.65;;;20.60;38.40;;;24.46;25.20;102410.84;6215989;23;20042;-16
2022/04/30 00:25:56;;;;;;;0.98;0.80;;;20.60;38.40;;;24.44;25.21;102407.41;6215962;23;20023;-16
2022/04/30 00:28:25;;;;;;;1.05;0.90;;;20.60;38.40;;;24.44;25.15;102414.53;6215431;23;20051;-16
2022/04/30 00:30:51;;;;;;;0.82;0.80;;;20.60;38.30;;;24.45;25.38;102410.94;6215610;23;20012;-16
2022/04/30 00:33:17;;;;;;;0.73;0.70;;;20.60;38.30;;;24.41;25.17;102402.22;6215620;23;20015;-16
2022/04/30 00:35:43;;;;;;;0.70;0.68;;;20.60;38.30;;;24.44;25.11;102403.84;6214007;23;20096;-16
2022/04/30 00:38:09;;;;;;;0.68;0.68;;;20.60;38.30;;;24.42;25.29;102398.56;6215565;23;20048;-16
2022/04/30 00:40:36;;;;;;;0.80;0.80;;;20.60;38.30;;;24.42;25.08;102404.81;6215497;23;20048;-16
2022/04/30 00:43:02;;;;;;;0.50;0.50;;;20.60;38.30;;;24.45;25.28;102400.22;6215914;23;20334;-16
2022/04/30 00:45:28;;;;;;;0.52;0.52;;;20.60;38.30;;;24.47;25.30;102398.34;6215539;23;20086;-16
2022/04/30 00:47:55;;;;;;;1.55;0.98;;;20.60;38.30;;;24.39;25.36;102383.56;6215292;23;20040;-17
2022/04/30 00:50:22;;;;;;;0.80;0.80;;;20.60;38.40;;;24.44;25.14;102393.16;6215952;23;20019;-16
2022/04/30 00:52:50;;;;;;;1.33;0.70;;;20.60;38.40;;;24.38;25.41;102378.31;6215540;23;20087;-16
2022/04/30 00:55:21;;;;;;;0.70;0.70;;;20.60;38.30;;;24.43;25.35;102392.28;6216197;23;20035;-16
2022/04/30 00:57:50;;;;;;;1.65;1.10;;;20.60;38.30;;;24.46;25.30;102391.25;6214117;23;20371;-17
2022/04/30 01:00:16;;;;;;;0.77;0.77;;;20.60;38.30;;;24.45;25.39;102379.69;6214240;23;20009;-16
2022/04/30 01:03:06;;;;;;;0.70;0.70;;;20.60;38.30;;;24.38;25.26;102373.81;6214043;23;20008;-16
2022/04/30 01:05:44;;;;;;;1.25;0.70;;;20.60;38.40;;;24.47;25.34;102390.31;6214291;23;20013;-16
2022/04/30 01:08:10;;;;;;;1.55;0.60;;;20.60;38.30;;;24.44;25.22;102382.44;6215346;23;20023;-17
2022/04/30 01:10:36;;;;;;;0.75;0.75;;;20.60;38.30;;;24.43;25.34;102376.25;6215859;23;20059;-16
2022/04/30 01:13:03;;;;;;;0.82;0.80;;;20.60;38.30;;;24.38;25.36;102365.78;6215428;23;20012;-16
2022/04/30 01:15:29;;;;;;;0.70;0.70;;;20.60;38.30;;;24.40;25.23;102368.38;6216041;23;20036;-16
2022/04/30 01:17:56;;;;;;;1.20;0.70;;;20.60;38.30;;;24.38;25.31;102363.13;6213845;23;20451;-17
2022/04/30 01:20:22;;;;;;;0.80;0.80;;;20.60;38.30;;;24.39;25.11;102372.88;6215225;23;20008;-16
2022/04/30 01:23:03;;;;;;;1.02;0.75;;;20.60;38.30;;;24.38;25.05;102380.97;6214130;23;20378;-17
2022/04/30 01:25:33;;;;;;;0.98;0.70;;;20.60;38.30;;;24.36;25.21;102359.66;6216081;23;20017;-16
2022/04/30 01:28:00;;;;;;;0.85;0.70;;;20.60;38.30;;;24.39;25.27;102369.31;6215648;23;20019;-16
2022/04/30 01:30:27;;;;;;;1.58;0.75;;;20.60;38.30;;;24.38;25.15;102364.94;6215495;23;20347;-16
2022/04/30 01:38:21;;;;;;;0.70;0.70;;;20.60;38.30;;;24.37;25.03;102365.88;6215580;23;20013;-17
2022/04/30 01:40:48;;;;;;;1.50;0.90;;;20.60;38.30;;;24.41;25.39;102367.44;6215286;23;20008;-16
2022/04/30 01:43:16;;;;;;;0.70;0.70;;;20.60;38.30;;;24.37;25.33;102357.84;6215683;23;20446;-16
2022/04/30 01:45:44;;;;;;;0.70;0.70;;;20.60;38.30;;;24.39;25.17;102361.28;6215122;23;20012;-16
2022/04/30 01:48:14;;;;;;;0.65;0.65;;;20.60;38.30;;;24.37;25.32;102357.84;6214085;23;20415;-17
2022/04/30 01:50:43;;;;;;;1.88;0.88;;;20.60;38.30;;;24.41;25.23;102362.97;6215549;23;20020;-16
2022/04/30 01:53:10;;;;;;;0.75;0.63;;;20.60;38.30;;;24.34;25.29;102344.63;6215586;23;20018;-16
2022/04/30 01:55:37;;;;;;;1.25;1.00;;;20.60;38.20;;;24.38;25.27;102349.75;6215827;23;20111;-16
2022/04/30 01:58:07;;;;;;;0.82;0.82;;;20.60;38.20;;;24.41;25.03;102346.91;6213628;23;20012;-17
2022/04/30 02:00:33;;;;;;;0.70;0.70;;;20.60;38.20;;;24.39;25.14;102337.25;6215128;23;20017;-16
2022/04/30 02:03:06;;;;;;;1.08;0.70;;;20.60;38.20;;;24.34;25.32;102340.19;6215937;23;20091;-16
2022/04/30 02:05:33;;;;;;;1.30;0.57;;;20.60;38.20;;;24.36;25.33;102340.97;6210011;23;20012;-16
2022/04/30 02:08:11;;;;;;;0.80;0.73;;;20.60;38.20;;;24.40;25.10;102349.66;6214889;23;20055;-17
2022/04/30 02:10:42;;;;;;;0.85;0.73;;;20.60;38.20;;;24.40;25.33;102342.50;6215760;23;20020;-16
2022/04/30 02:13:09;;;;;;;1.40;0.88;;;20.60;38.20;;;24.40;25.17;102347.84;6214626;23;20020;-16
2022/04/30 02:15:39;;;;;;;0.82;0.70;;;20.60;38.30;;;24.33;25.39;102329.56;6214998;23;20020;-16
2022/04/30 02:18:09;;;;;;;1.30;0.75;;;20.60;38.20;;;24.37;25.25;102328.44;6214932;23;20012;-16
2022/04/30 02:20:38;;;;;;;0.85;0.73;;;20.60;38.20;;;24.40;25.32;102339.84;6215843;23;20016;-16
2022/04/30 02:23:08;;;;;;;1.15;0.70;;;20.60;38.20;;;24.36;25.25;102327.59;6213568;23;20017;-16
2022/04/30 02:25:34;;;;;;;0.60;0.60;;;20.60;38.20;;;24.39;25.15;102330.09;6215189;23;20032;-16
2022/04/30 02:28:04;;;;;;;0.90;0.82;;;20.60;38.30;;;24.35;25.11;102323.19;6214786;23;20047;-17
2022/04/30 02:30:32;;;;;;;1.23;0.60;;;20.60;38.30;;;24.36;25.07;102313.38;6215287;23;20058;-16
2022/04/30 02:33:06;;;;;;;1.67;0.73;;;20.60;38.20;;;24.32;25.19;102306.44;6215443;23;20020;-16
2022/04/30 02:35:34;;;;;;;0.98;0.70;;;20.60;38.30;;;24.34;25.28;102301.88;6215211;23;20067;-16
2022/04/30 02:38:08;;;;;;;1.17;0.73;;;20.60;38.80;;;24.32;25.14;102301.09;6213089;23;20005;-16
2022/04/30 02:40:34;;;;;;;0.90;0.77;;;20.60;38.30;;;24.34;25.14;102312.56;6215126;23;20374;-16
2022/04/30 02:43:10;;;;;;;0.98;0.90;;;20.60;38.30;;;24.37;25.11;102310.63;6215723;23;20036;-16
2022/04/30 02:45:38;;;;;;;0.77;0.77;;;20.60;38.30;;;24.34;25.19;102302.75;6209387;23;20012;-16
2022/04/30 02:48:06;;;;;;;0.70;0.70;;;20.60;38.30;;;24.39;25.00;102302.47;6214714;23;20020;-17
2022/04/30 02:50:33;;;;;;;0.80;0.80;;;20.60;38.20;;;24.34;25.19;102300.09;6214900;23;20509;-16
2022/04/30 02:52:59;;;;;;;0.60;0.60;;;20.60;38.30;;;24.37;25.02;102310.63;6215310;23;20461;-16
2022/04/30 02:55:25;;;;;;;0.73;0.70;;;20.60;38.30;;;24.33;25.33;102300.16;6214881;23;20091;-16
2022/04/30 03:00:51;;;;;;;1.05;0.85;;;20.50;38.20;;;24.32;25.30;102290.41;6214755;23;20450;-16
2022/04/30 03:03:29;;;;;;;0.70;0.70;;;20.60;38.30;;;24.36;25.31;102289.31;6213617;23;20013;-16
2022/04/30 03:05:56;;;;;;;0.82;0.80;;;20.60;38.20;;;24.34;25.06;102288.50;6214729;23;20013;-16
2022/04/30 03:08:25;;;;;;;0.85;0.65;;;20.60;38.20;;;24.37;25.28;102296.38;6214626;23;20099;-16
2022/04/30 03:10:56;;;;;;;0.70;0.70;;;20.60;38.20;;;24.30;25.08;102279.78;6215223;23;20009;-16
2022/04/30 03:13:24;;;;;;;0.93;0.82;;;20.60;38.20;;;24.32;25.25;102283.25;6212400;23;20470;-16
2022/04/30 03:15:52;;;;;;;0.90;0.80;;;20.60;38.20;;;24.31;25.19;102280.69;6212404;23;20465;-16
2022/04/30 03:23:39;;;;;;;1.15;0.80;;;20.60;38.10;;;24.39;25.06;102290.00;6214631;23;20015;-16
2022/04/30 03:26:09;;;;;;;1.75;0.80;;;20.60;38.20;;;24.35;25.15;102290.25;6215011;23;20308;-16
2022/04/30 03:28:40;;;;;;;0.70;0.70;;;20.60;38.10;;;24.33;25.04;102276.97;6213052;23;20016;-16
2022/04/30 03:31:09;;;;;;;1.13;0.82;;;20.60;38.10;;;24.34;25.28;102273.34;6215034;23;20058;-16
2022/04/30 03:33:35;;;;;;;0.82;0.70;;;20.60;38.10;;;24.36;25.29;102275.94;6214570;23;20015;-16
2022/04/30 03:36:02;;;;;;;1.40;0.80;;;20.60;38.00;;;24.41;25.23;102281.91;6214595;23;20013;-16
2022/04/30 03:38:28;;;;;;;0.70;0.70;;;20.70;38.10;;;24.40;25.02;102278.34;6214522;23;20016;-17
2022/04/30 03:40:54;;;;;;;0.70;0.70;;;20.60;38.00;;;24.41;25.29;102280.09;6214568;23;20009;-16
2022/04/30 03:43:20;;;;;;;0.75;0.75;;;20.60;38.00;;;24.40;24.96;102285.50;6214492;23;20476;-16
2022/04/30 03:45:46;;;;;;;1.10;0.80;;;20.60;38.00;;;24.40;25.13;102280.16;6214480;23;20008;-16
2022/04/30 03:48:15;;;;;;;1.00;0.70;;;20.70;38.00;;;24.44;24.96;102278.19;6214153;23;20108;-17
2022/04/30 03:50:44;;;;;;;1.20;0.98;;;20.70;38.00;;;24.45;25.27;102279.91;6214585;23;20013;-16
2022/04/30 03:53:10;;;;;;;1.10;0.80;;;20.70;38.00;;;24.38;25.29;102272.22;6214459;23;20354;-16
2022/04/30 03:55:36;;;;;;;1.15;0.82;;;20.70;38.00;;;24.46;24.92;102279.84;6214443;23;20024;-16
2022/04/30 03:58:02;;;;;;;0.60;0.60;;;20.70;37.90;;;24.46;25.12;102287.84;6214138;23;20449;-17
2022/04/30 04:00:28;;;;;;;0.90;0.80;;;20.80;37.90;;;24.49;25.24;102284.13;6214408;23;20381;-16
2022/04/30 04:02:56;;;;;;;0.68;0.68;;;20.70;37.80;;;24.41;25.13;102269.38;6214417;23;20075;-16
2022/04/30 04:05:22;;;;;;;0.70;0.70;;;20.80;37.90;;;24.43;25.17;102274.66;6213160;23;20012;-16
2022/04/30 04:07:48;;;;;;;0.77;0.68;;;20.70;37.90;;;24.49;25.12;102289.47;6214073;23;20036;-16
2022/04/30 04:10:13;;;;;;;1.35;1.00;;;20.70;37.80;;;24.43;24.99;102280.00;6214384;23;20074;-16
2022/04/30 04:12:40;;;;;;;0.80;0.80;;;20.70;37.90;;;24.47;25.07;102297.59;6214532;23;20019;-16
2022/04/30 04:17:53;;;;;;;0.70;0.70;;;20.80;37.90;;;24.48;24.99;102290.44;6214439;23;20016;-17
2022/04/30 04:20:27;;;;;;;1.15;0.60;;;20.80;37.90;;;24.45;24.97;102291.47;6214152;23;20020;-16
2022/04/30 04:22:54;;;;;;;0.60;0.60;;;20.80;37.90;;;24.49;25.04;102287.69;6214932;23;20047;-16
2022/04/30 04:28:05;;;;;;;0.85;0.80;;;20.90;37.80;;;24.55;24.93;102292.72;6214049;23;20008;-17
2022/04/30 04:30:32;;;;;;;0.80;0.70;;;21.00;37.80;;;24.66;24.90;102300.16;6214248;23;20012;-16
2022/04/30 04:32:59;;;;;;;0.77;0.77;;;21.00;37.70;;;24.69;24.78;102301.78;6213933;23;20091;-16
2022/04/30 04:35:26;;;;;;;0.75;0.73;;;21.00;37.70;;;24.68;24.85;102292.06;6214768;23;20430;-16
2022/04/30 04:37:52;;;;;;;0.70;0.70;;;21.00;37.60;;;24.70;24.87;102290.16;6215459;23;20020;-16
2022/04/30 04:40:18;;;;;;;0.60;0.60;;;21.00;37.60;;;24.73;24.91;102295.34;6215592;23;20304;-16
2022/04/30 04:42:45;;;;;;;0.70;0.70;;;21.00;37.50;;;24.77;24.72;102297.78;6215549;23;20040;-16
2022/04/30 04:45:12;;;;;;;0.70;0.70;;;21.10;37.60;;;24.84;24.66;102305.44;6215869;23;20334;-16
2022/04/30 04:47:41;;;;;;;0.57;0.57;;;21.10;37.50;;;24.79;24.68;102294.97;6215486;23;20024;-16
2022/04/30 04:50:10;;;;;;;0.88;0.82;;;21.10;37.50;;;24.86;24.75;102295.50;6213888;23;20385;-16
2022/04/30 04:52:36;;;;;;;0.70;0.70;;;21.10;37.50;;;24.80;24.89;102278.00;6215567;23;20331;-16
2022/04/30 04:55:02;;;;;;;0.65;0.65;;;21.10;37.50;;;24.88;24.94;102283.78;6215393;23;20497;-16
2022/04/30 04:57:28;;;;;;;1.00;0.73;;;21.10;37.50;;;24.85;24.70;102281.28;6215430;23;20094;-16
2022/04/30 04:59:54;;;;;;;0.52;0.52;;;21.20;37.50;;;24.85;24.80;102280.41;6215771;23;20012;-16
2022/04/30 05:02:20;;;;;;;0.60;0.60;;;21.20;37.50;;;24.91;24.65;102291.63;6215560;23;20016;-17
2022/04/30 05:04:46;;;;;;;0.70;0.70;;;21.20;37.50;;;24.92;24.85;102298.69;6215246;23;20009;-17
2022/04/30 05:07:12;;;;;;;0.70;0.70;;;21.10;37.40;;;24.92;24.68;102288.00;6215294;23;20021;-16
2022/04/30 05:09:38;;;;;;;1.10;1.00;;;21.20;37.50;;;24.96;24.92;102304.78;6213861;23;20087;-17
2022/04/30 05:12:05;;;;;;;0.60;0.60;;;21.20;37.50;;;24.90;24.89;102292.56;6215298;23;20017;-16
2022/04/30 05:14:32;;;;;;;1.10;0.77;;;21.20;37.50;;;25.00;24.74;102297.44;6215317;23;20067;-16
2022/04/30 05:16:59;;;;;;;0.77;0.77;;;21.30;37.40;;;24.98;24.75;102294.84;6215840;23;20020;-16
2022/04/30 05:19:25;;;;;;;0.75;0.75;;;21.30;37.40;;;25.04;24.51;102298.97;6215331;23;20067;-16
2022/04/30 05:21:51;;;;;;;1.00;0.80;;;21.30;37.40;;;25.09;24.59;102307.59;6215369;23;20031;-16
2022/04/30 05:24:16;;;;;;;0.70;0.65;;;21.30;37.30;;;25.08;24.54;102298.72;6215208;23;20005;-16
2022/04/30 05:26:42;;;;;;;0.73;0.60;;;21.40;37.20;;;25.11;24.75;102298.53;6215257;23;20473;-16
2022/04/30 05:29:09;;;;;;;0.90;0.90;;;21.40;37.10;;;25.13;24.61;102301.97;6215315;23;20500;-16
2022/04/30 05:31:36;;;;;;;0.70;0.70;;;21.50;37.10;;;25.21;24.57;102309.59;6216048;23;20017;-16
2022/04/30 05:34:02;;;;;;;1.38;0.80;;;21.50;37.00;;;25.20;24.50;102301.66;6215319;23;20382;-16
2022/04/30 05:36:28;;;;;;;0.80;0.80;;;21.50;36.90;;;25.27;24.38;102306.56;6215321;23;20017;-16
2022/04/30 05:38:54;;;;;;;0.77;0.77;;;21.60;37.00;;;25.31;24.52;102304.59;6215629;23;20023;-17
2022/04/30 05:41:20;;;;;;;0.77;0.68;;;21.60;37.50;;;25.33;24.47;102311.56;6215331;23;20067;-16
2022/04/30 05:43:45;;;;;;;0.73;0.50;;;21.60;36.90;;;25.37;24.44;102303.38;6215254;23;20018;-16
2022/04/30 05:46:13;;;;;;;0.70;0.70;;;21.70;36.90;;;25.38;24.36;102305.13;6215266;23;20013;-17
2022/04/30 05:48:39;;;;;;;1.50;0.80;;;21.70;36.80;;;25.44;24.04;102305.63;6215098;23;20016;-17
2022/04/30 05:51:04;;;;;;;0.60;0.60;;;21.70;36.80;;;25.47;24.32;102309.91;6215215;23;20115;-17
2022/04/30 05:53:30;;;;;;;0.63;0.60;;;21.70;36.70;;;25.52;24.21;102313.19;6215624;23;20016;-17
2022/04/30 05:55:56;;;;;;;0.93;0.70;;;21.80;36.70;;;25.54;24.36;102302.38;6215321;23;20016;-16
2022/04/30 05:58:22;;;;;;;0.63;0.63;;;21.80;36.70;;;25.61;24.11;102311.78;6214999;23;20461;-17
2022/04/30 06:00:48;;;;;;;0.70;0.68;;;21.90;36.60;;;25.66;24.10;102315.94;6214915;23;20005;-16
2022/04/30 06:03:14;;;;;;;0.70;0.70;;;21.90;36.60;;;25.65;24.15;102307.97;6215077;23;20457;-16
2022/04/30 06:05:40;;;;;;;1.08;0.90;;;21.90;36.60;;;25.74;24.14;102315.44;6215129;23;20012;-17
2022/04/30 06:08:06;;;;;;;0.60;0.60;;;21.90;36.60;;;25.75;23.95;102317.19;6215071;23;20009;-16
2022/04/30 06:10:32;;;;;;;0.60;0.60;;;22.00;36.60;;;25.80;24.03;102309.72;6215841;23;20084;-16
2022/04/30 06:12:59;;;;;;;0.60;0.60;;;22.00;36.50;;;25.83;23.93;102311.38;6215149;23;20091;-16
2022/04/30 06:15:25;;;;;;;0.70;0.70;;;22.00;36.40;;;25.88;23.86;102311.97;6215483;23;20019;-16
2022/04/30 06:17:51;;;;;;;0.60;0.60;;;22.10;36.40;;;25.96;23.83;102322.25;6215095;23;20103;-17
2022/04/30 06:20:17;;;;;;;1.45;0.80;;;22.10;36.40;;;26.02;23.93;102327.25;6215077;23;20447;-16
2022/04/30 06:22:44;;;;;;;0.52;0.52;;;22.10;36.30;;;25.98;23.85;102315.84;6215810;23;20030;-16
2022/04/30 06:25:12;;;;;;;0.60;0.60;;;22.20;36.30;;;26.00;23.84;102313.06;6215106;23;20074;-17
2022/04/30 06:27:39;;;;;;;0.60;0.60;;;22.20;36.30;;;26.08;23.63;102332.22;6214872;23;20013;-17
2022/04/30 06:30:07;;;;;;;0.50;0.50;;;22.20;36.30;;;26.05;23.78;102319.88;6215109;23;20035;-16
2022/04/30 06:32:34;;;;;;;0.80;0.80;;;22.20;36.20;;;26.10;23.70;102322.28;6215049;23;20009;-17
2022/04/30 06:35:00;;;;;;;0.80;0.80;;;22.20;36.20;;;26.17;23.55;102325.44;6215034;23;20036;-17
2022/04/30 06:37:25;;;;;;;0.73;0.73;;;22.30;36.20;;;26.22;23.58;102324.19;6215370;23;20079;-17
2022/04/30 06:39:51;;;;;;;0.70;0.60;;;22.30;36.20;;;26.19;23.61;102323.53;6215058;23;20017;-17
2022/04/30 06:42:17;;;;;;;0.82;0.70;;;22.30;36.10;;;26.27;23.61;102325.75;6214954;23;20012;-17
2022/04/30 06:44:43;;;;;;;0.80;0.80;;;22.30;36.10;;;26.31;23.52;102329.94;6214934;23;20016;-17
2022/04/30 06:47:09;;;;;;;1.00;0.68;;;22.40;36.10;;;26.30;23.46;102312.16;6215180;23;20024;-17
2022/04/30 06:49:36;;;;;;;0.60;0.60;;;22.40;36.10;;;26.35;23.38;102315.41;6215285;23;20012;-17
2022/04/30 06:52:02;;;;;;;0.63;0.63;;;22.40;36.00;;;26.37;23.44;102310.81;6214725;23;20066;-17
2022/04/30 06:57:16;;;;;;;0.77;0.70;;;22.40;35.90;;;26.43;23.35;102322.00;6214710;23;20043;-21
2022/04/30 06:59:44;;;;;;;0.73;0.73;;;22.50;35.90;;;26.52;23.35;102338.50;6214726;23;20023;-17
2022/04/30 07:02:18;;;;;;;0.80;0.80;;;22.50;35.90;;;26.49;23.28;102325.25;6215214;23;20370;-16
2022/04/30 07:04:49;;;;;;;0.60;0.60;;;22.60;35.90;;;26.51;23.26;102321.50;6215231;23;20021;-16
2022/04/30 07:07:15;;;;;;;0.60;0.60;;;22.50;35.90;;;26.59;23.27;102329.94;6214863;23;20102;-17
2022/04/30 07:09:41;;;;;;;0.80;0.60;;;22.50;35.90;;;26.56;23.25;102315.88;6214846;23;20070;-17
2022/04/30 07:12:09;;;;;;;0.63;0.60;;;22.50;35.90;;;26.52;23.25;102317.88;6215269;23;20009;-16
2022/04/30 07:14:37;;;;;;;0.60;0.60;;;22.50;35.90;;;26.58;23.27;102320.19;6211896;23;20469;-16
2022/04/30 07:17:05;;;;;;;0.95;0.60;;;22.50;35.90;;;26.58;23.27;102324.66;6214572;23;20013;-17
2022/04/30 07:19:31;;;;;;;0.65;0.65;;;22.50;35.90;;;26.59;23.09;102326.41;6214455;23;20008;-16
2022/04/30 07:21:57;;;;;;;0.98;0.70;;;22.50;35.90;;;26.61;23.13;102325.38;6215478;23;20012;-16
2022/04/30 07:24:22;;;;;;;0.63;0.60;;;22.50;35.90;;;26.61;23.13;102325.38;6215044;23;20071;-17
2022/04/30 07:26:48;;;;;;;0.40;0.40;;;22.50;35.80;;;26.65;23.02;102325.16;6214630;23;20100;-16
2022/04/30 07:29:14;;;;;;;0.60;0.60;;;22.50;35.80;;;26.64;23.15;102327.00;6215046;23;20016;-16
2022/04/30 07:31:40;;;;;;;0.50;0.50;;;22.50;35.90;;;26.59;22.95;102321.03;6214807;23;20012;-16
2022/04/30 07:34:09;;;;;;;0.70;0.70;;;22.60;35.90;;;26.67;23.15;102326.81;6215139;23;20020;-17
2022/04/30 07:36:37;;;;;;;0.70;0.60;;;22.60;35.80;;;26.69;23.09;102326.72;6214598;23;20020;-17
2022/04/30 07:39:04;;;;;;;0.50;0.50;;;22.60;35.80;;;26.69;23.20;102321.34;6214525;23;20016;-17
2022/04/30 07:41:29;;;;;;;0.75;0.75;;;22.60;35.80;;;26.68;22.96;102316.94;6214478;23;20039;-17
2022/04/30 07:43:55;;;;;;;0.70;0.70;;;22.60;35.70;;;26.71;22.97;102314.06;6214431;23;20009;-17
2022/04/30 07:46:24;;;;;;;0.70;0.60;;;22.70;35.80;;;26.70;23.19;102312.34;6214766;23;20083;-16
2022/04/30 07:48:50;;;;;;;0.57;0.57;;;22.60;35.70;;;26.72;22.93;102323.84;6213980;23;20016;-16
2022/04/30 07:51:18;;;;;;;0.60;0.60;;;22.60;35.70;;;26.70;22.91;102317.72;6214455;23;20020;-16
2022/04/30 07:53:47;;;;;;;0.47;0.47;;;22.70;35.70;;;26.75;23.07;102319.13;6214221;23;20474;-16
2022/04/30 07:56:15;;;;;;;1.02;0.55;;;22.60;35.70;;;26.71;22.91;102314.91;6211293;23;20024;-17
2022/04/30 07:58:41;;;;;;;1.33;0.80;;;22.70;35.70;;;26.78;22.85;102318.06;6214244;23;20012;-17
2022/04/30 08:01:07;;;;;;;1.20;0.75;;;22.70;35.70;;;26.72;23.19;102315.81;6214232;23;20023;-16
2022/04/30 08:03:34;;;;;;;0.70;0.70;;;22.70;35.70;;;26.74;23.02;102313.88;6214137;23;20039;-17
2022/04/30 08:06:00;;;;;;;0.85;0.70;;;22.70;35.70;;;26.74;22.86;102314.72;6214225;23;20044;-16
2022/04/30 08:08:26;;;;;;;0.70;0.70;;;22.70;35.70;;;26.76;23.00;102322.69;6213884;23;20080;-16
2022/04/30 08:10:52;;;;;;;0.70;0.70;;;22.60;35.70;;;26.73;22.86;102318.38;6215048;23;20012;-16
2022/04/30 08:13:18;;;;;;;0.93;0.60;;;22.60;35.70;;;26.78;23.19;102323.44;6215656;23;20019;-17
2022/04/30 08:15:44;;;;;;;0.60;0.60;;;22.60;35.70;;;26.76;23.02;102314.63;6216002;23;20023;-17
2022/04/30 08:18:11;;;;;;;0.68;0.68;;;22.60;35.70;;;26.73;22.94;102312.13;6215856;23;20016;-17
2022/04/30 08:20:38;;;;;;;0.73;0.73;;;22.60;35.70;;;26.74;22.75;102319.25;6215866;23;20356;-17
2022/04/30 08:23:06;;;;;;;0.60;0.60;;;22.60;35.70;;;26.73;22.91;102310.34;6215504;23;20035;-17
2022/04/30 08:25:33;;;;;;;0.63;0.63;;;22.60;35.80;;;26.71;22.98;102308.69;6216369;23;20008;-16
2022/04/30 08:27:59;;;;;;;0.60;0.60;;;22.60;35.80;;;26.70;22.93;102313.22;6215192;23;20427;-17
2022/04/30 08:30:24;;;;;;;0.60;0.60;;;22.60;35.80;;;26.72;23.01;102318.47;6215455;23;20015;-16
2022/04/30 08:32:50;;;;;;;0.60;0.60;;;22.60;35.80;;;26.73;22.75;102318.38;6216015;23;20430;-17
2022/04/30 08:35:16;;;;;;;0.57;0.57;;;22.50;35.80;;;26.61;22.84;102311.94;6215430;23;20016;-17
2022/04/30 08:37:42;;;;;;;0.70;0.70;;;22.50;35.90;;;26.62;22.85;102305.59;6215773;23;20020;-17
2022/04/30 08:40:08;;;;;;;0.60;0.60;;;22.50;36.00;;;26.58;23.09;102309.47;6215522;23;20016;-17
2022/04/30 08:42:34;;;;;;;1.27;0.75;;;22.40;36.00;;;26.55;22.95;102301.59;6216006;23;20008;-17
2022/04/30 08:45:07;;;;;;;0.60;0.60;;;22.40;36.10;;;26.50;23.12;102303.72;6215426;23;20013;-17
2022/04/30 08:47:40;;;;;;;0.85;0.70;;;22.40;36.10;;;26.42;23.03;102293.44;6215813;23;20013;-17
2022/04/30 08:50:10;;;;;;;0.75;0.70;;;22.40;36.20;;;26.41;23.20;102296.22;6215457;23;20013;-17
2022/04/30 08:52:37;;;;;;;0.60;0.60;;;22.30;36.20;;;26.42;23.23;102300.66;6214582;23;20311;-17
2022/04/30 08:55:08;;;;;;;0.57;0.57;;;22.30;36.20;;;26.39;23.18;102295.47;6215595;23;20028;-17
2022/04/30 08:57:34;;;;;;;;;;;22.30;36.30;;;26.56;22.97;102310.50;6216039;23;20454;-17
2022/04/30 09:00:00;;;;;;;1.00;0.70;;;22.20;36.20;;;26.44;23.13;102299.56;6215456;23;19945;-17
2022/04/30 09:02:27;;;;;;;0.60;0.60;;;22.30;36.40;;;26.39;23.21;102304.38;6216227;23;20335;-16
2022/04/30 09:04:54;;;;;;;0.70;0.70;;;22.20;36.40;;;26.31;23.28;102289.72;6215340;23;20004;-17
2022/04/30 09:07:23;;;;;;;0.63;0.60;;;22.20;36.40;;;26.29;23.40;102291.66;6215150;23;20012;-17
2022/04/30 09:09:57;;;;;;;0.50;0.50;;;22.20;36.40;;;26.22;23.57;102283.13;6216011;23;20048;-17
2022/04/30 09:12:25;;;;;;;1.10;0.70;;;22.20;36.50;;;26.23;23.39;102290.22;6216139;23;20043;-17
2022/04/30 09:14:51;;;;;;;0.80;0.75;;;22.10;36.50;;;26.25;23.38;102301.69;6215435;23;20447;-16
2022/04/30 09:17:18;;;;;;;0.77;0.70;;;22.10;36.50;;;26.22;23.40;102297.38;6215367;23;20442;-17
2022/04/30 09:19:47;;;;;;;0.70;0.68;;;22.10;36.50;;;26.21;23.33;102300.16;6215268;23;20020;-17
2022/04/30 09:22:15;;;;;;;0.73;0.60;;;22.10;36.50;;;26.20;23.43;102293.94;6209044;23;20016;-17
2022/04/30 09:24:50;;;;;;;0.82;0.70;;;22.10;36.60;;;26.13;23.44;102289.91;6215323;23;20013;-17
2022/04/30 09:27:17;;;;;;;0.65;0.65;;;22.10;36.60;;;26.17;23.46;102294.13;6213328;23;20099;-17
2022/04/30 09:29:43;;;;;;;0.90;0.70;;;22.10;36.60;;;26.13;23.71;102286.34;6215393;23;20385;-17
2022/04/30 09:32:17;;;;;;;1.05;0.68;;;22.10;36.60;;;26.07;23.51;102282.25;6215719;23;20015;-16
2022/04/30 09:37:42;;;;;;;0.45;0.45;;;22.10;36.70;;;26.02;23.63;102284.34;6214047;23;20083;-17
2022/04/30 09:40:14;;;;;;;0.60;0.60;;;22.00;36.70;;;26.05;23.74;102295.75;6215745;23;20035;-17
2022/04/30 09:42:48;;;;;;;0.63;0.60;;;22.00;36.70;;;25.94;23.67;102274.06;6215574;23;20431;-17
2022/04/30 09:45:32;;;;;;;0.70;0.60;;;22.00;36.80;;;25.95;23.75;102281.19;6215642;23;20059;-16
2022/04/30 09:54:12;;;;;;;0.60;0.60;;;21.90;36.80;;;25.88;23.65;102271.78;6215512;23;20023;-17
2022/04/30 09:56:40;;;;;;;0.65;0.65;;;21.90;36.90;;;25.85;23.80;102274.63;6210983;23;20012;-16
2022/04/30 09:59:12;;;;;;;0.60;0.60;;;21.90;36.90;;;25.89;23.85;102278.84;6213588;23;20015;-17
2022/04/30 10:01:41;;;;;;;0.60;0.60;;;21.90;37.00;;;25.81;23.82;102259.69;6215571;23;20009;-17
2022/04/30 10:04:10;;;;;;;0.50;0.50;;;21.90;36.90;;;25.87;23.76;102270.03;6215176;23;20015;-17
2022/04/30 10:06:40;;;;;;;0.63;0.63;;;21.90;37.00;;;25.83;23.97;102271.19;6215058;23;20083;-17
2022/04/30 10:09:09;;;;;;;0.80;0.80;;;21.90;37.50;;;25.79;23.83;102262.44;6215409;23;20383;-17
2022/04/30 10:12:04;;;;;;;0.60;0.60;;;21.90;37.00;;;25.83;23.84;102285.44;6214236;23;20020;-16
2022/04/30 10:14:50;;;;;;;0.90;0.60;;;21.80;37.10;;;25.81;23.86;102278.44;6215229;23;20016;-16
2022/04/30 10:17:17;;;;;;;0.65;0.65;;;21.80;37.10;;;25.80;23.98;102271.38;6215235;23;20021;-16
2022/04/30 10:19:47;;;;;;;0.98;0.70;;;21.80;37.10;;;25.73;23.73;102262.84;6215007;23;20043;-24
2022/04/30 10:22:17;;;;;;;0.98;0.85;;;21.80;37.10;;;25.71;23.96;102256.72;6215183;23;20111;-16
2022/04/30 10:24:46;;;;;;;0.70;0.70;;;21.80;37.10;;;25.75;23.76;102265.44;6215132;23;20031;-17
2022/04/30 10:27:12;;;;;;;0.63;0.60;;;21.80;37.10;;;25.74;23.94;102266.38;6215380;23;20015;-16
2022/04/30 10:29:59;;;;;;;0.52;0.52;;;21.70;37.10;;;25.67;24.05;102250.66;6215418;23;20453;-17
2022/04/30 10:32:37;;;;;;;0.88;0.68;;;21.70;37.10;;;25.60;24.02;102238.59;6212707;23;20016;-16
2022/04/30 10:35:05;;;;;;;0.50;0.50;;;21.80;37.10;;;25.76;24.04;102256.41;6215148;23;20015;-16
2022/04/30 10:37:40;;;;;;;0.60;0.60;;;21.80;37.10;;;25.62;24.10;102236.69;6215030;23;20009;-17
2022/04/30 10:40:08;;;;;;;0.50;0.50;;;21.80;37.20;;;25.69;24.01;102237.19;6212248;23;20016;-16
2022/04/30 10:42:42;;;;;;;0.85;0.80;;;21.80;37.10;;;25.69;23.99;102240.75;6215361;23;20367;-16
2022/04/30 10:45:16;;;;;;;0.60;0.60;;;21.80;37.10;;;25.67;24.10;102239.94;6212762;23;20012;-16
2022/04/30 10:47:53;;;;;;;1.85;0.82;;;21.80;37.10;;;25.71;24.19;102246.00;6213013;23;20016;-17